Time;durP1;ratioP1;P1;durP2;ratioP2;P2;SDS_P1;SDS_P2;PMS_P1;PMS_P2;Temp;Humidity;BMP_temperature;BMP_pressure;BME280_temperature;BME280_humidity;BME280_pressure;Samples;Min_cycle;Max_cycle;Signal;HPM_P1;HPM_P2
2022/01/04 00:01:22;;;;;;;;;4.00;4.00;;;;;13.84;43.59;97921.78;6227429;28;97403;-68
2022/01/04 00:04:26;;;;;;;;;4.00;4.00;;;;;13.80;43.83;97923.38;6212821;28;96941;-68
2022/01/04 00:07:29;;;;;;;;;4.80;4.00;;;;;13.86;43.77;97919.63;6211538;28;97486;-69
2022/01/04 00:10:32;;;;;;;;;5.00;5.00;;;;;13.80;43.77;97919.84;6212625;28;96610;-68
2022/01/04 00:13:36;;;;;;;;;5.40;4.00;;;;;13.74;43.86;97899.25;6209537;28;97623;-66
2022/01/04 00:16:41;;;;;;;;;3.00;3.00;;;;;13.94;43.90;97910.16;6212497;28;96516;-66
2022/01/04 00:19:44;;;;;;;;;3.00;3.00;;;;;13.93;44.16;97907.72;6212952;28;97530;-66
2022/01/04 00:22:48;;;;;;;;;3.00;3.00;;;;;13.83;44.41;97903.88;6212621;28;97378;-67
2022/01/04 00:25:51;;;;;;;;;3.40;3.00;;;;;13.88;44.37;97898.47;6211238;28;98420;-68
2022/01/04 00:28:55;;;;;;;;;4.00;3.00;;;;;13.75;44.86;97896.28;6210324;28;99928;-68
2022/01/04 00:31:59;;;;;;;;;2.00;2.00;;;;;13.73;44.98;97887.59;6211276;28;99088;-68
2022/01/04 00:35:03;;;;;;;;;2.00;2.00;;;;;13.68;45.31;97886.78;6212730;28;97455;-68
2022/01/04 00:38:06;;;;;;;;;3.25;3.00;;;;;13.85;45.08;97884.66;6210824;28;98381;-68
2022/01/04 00:41:10;;;;;;;;;3.00;3.00;;;;;13.72;45.19;97888.69;6212047;28;97597;-68
2022/01/04 00:44:13;;;;;;;;;4.00;3.00;;;;;13.77;45.07;97880.59;6211474;28;96642;-69
2022/01/04 00:47:20;;;;;;;;;4.00;4.00;;;;;13.84;45.11;97883.84;6210574;28;97831;-66
2022/01/04 00:50:23;;;;;;;;;3.00;2.00;;;;;13.67;45.33;97877.84;6212245;28;97927;-66
2022/01/04 00:53:27;;;;;;;;;4.00;3.00;;;;;13.69;45.38;97875.66;6212911;28;97046;-66
2022/01/04 00:56:30;;;;;;;;;4.60;3.60;;;;;13.72;45.57;97871.63;6213245;28;96900;-65
2022/01/04 00:59:33;;;;;;;;;3.00;3.00;;;;;13.70;45.49;97863.75;6212217;28;96500;-68
2022/01/04 01:02:39;;;;;;;;;3.00;3.00;;;;;13.70;45.62;97866.47;6210876;28;96498;-69
2022/01/04 01:05:43;;;;;;;;;3.00;3.00;;;;;13.73;45.58;97863.22;6211938;28;96568;-66
2022/01/04 01:08:46;;;;;;;;;4.00;3.00;;;;;13.76;45.57;97861.88;6211529;28;97049;-66
2022/01/04 01:11:50;;;;;;;;;4.00;3.50;;;;;13.69;45.80;97856.72;6213050;28;96906;-65
2022/01/04 01:14:53;;;;;;;;;3.00;3.00;;;;;13.65;46.10;97860.22;6212521;28;96849;-69
2022/01/04 01:18:00;;;;;;;;;3.00;2.00;;;;;13.74;45.77;97851.31;6211316;28;96957;-68
2022/01/04 01:21:05;;;;;;;;;4.00;3.00;;;;;13.76;45.96;97851.03;6209077;28;98356;-66
2022/01/04 01:24:09;;;;;;;;;2.00;2.00;;;;;13.75;46.26;97844.81;6211084;28;97493;-68
2022/01/04 01:27:12;;;;;;;;;2.50;2.50;;;;;13.76;46.18;97854.56;6209693;28;97386;-68
2022/01/04 01:30:15;;;;;;;;;3.00;3.00;;;;;13.74;46.43;97850.50;6192461;28;96892;-66
2022/01/04 01:33:21;;;;;;;;;3.80;3.00;;;;;13.63;46.59;97852.38;6211051;28;96913;-66
2022/01/04 01:36:24;;;;;;;;;3.00;3.00;;;;;13.69;46.70;97836.94;6212435;28;97264;-68
2022/01/04 01:39:28;;;;;;;;;3.40;3.00;;;;;13.64;46.92;97840.44;6211224;28;96467;-68
2022/01/04 01:42:32;;;;;;;;;2.20;2.00;;;;;13.59;47.33;97850.44;6212398;28;97702;-64
2022/01/04 01:45:35;;;;;;;;;3.00;3.00;;;;;13.60;47.43;97850.19;6212547;28;97750;-65
2022/01/04 01:48:40;;;;;;;;;4.00;3.00;;;;;13.59;47.65;97853.16;6212488;28;96467;-66
2022/01/04 01:51:44;;;;;;;;;2.00;2.00;;;;;13.66;47.73;97846.41;6211846;28;96711;-67
2022/01/04 01:54:47;;;;;;;;;3.00;3.00;;;;;13.57;48.19;97845.31;6211048;28;97235;-65
2022/01/04 01:57:52;;;;;;;;;3.00;3.00;;;;;13.65;48.19;97839.38;6212020;28;96453;-68
2022/01/04 02:00:55;;;;;;;;;3.00;3.00;;;;;13.65;48.54;97854.81;6210506;28;96954;-65
2022/01/04 02:04:00;;;;;;;;;3.00;3.00;;;;;13.62;48.85;97841.81;6210077;28;98043;-65
2022/01/04 02:07:05;;;;;;;;;3.00;3.00;;;;;13.55;49.48;97842.03;6208020;28;97568;-67
2022/01/04 02:10:09;;;;;;;;;3.00;3.00;;;;;13.55;49.81;97842.03;6190679;28;96572;-65
2022/01/04 02:13:12;;;;;;;;;5.00;4.00;;;;;13.45;50.12;97837.41;6210493;28;97436;-66
2022/01/04 02:16:17;;;;;;;;;3.00;3.00;;;;;13.47;50.24;97836.34;6192433;28;98349;-69
2022/01/04 02:19:22;;;;;;;;;3.40;3.40;;;;;13.41;50.46;97830.09;6212069;28;97002;-65
2022/01/04 02:22:27;;;;;;;;;4.00;3.40;;;;;13.36;50.91;97835.47;6211745;28;97580;-68
2022/01/04 02:25:30;;;;;;;;;3.00;3.00;;;;;13.40;50.72;97829.28;6211700;28;96493;-65
2022/01/04 02:28:34;;;;;;;;;4.00;4.00;;;;;13.36;51.05;97819.25;6212004;28;97093;-68
2022/01/04 02:31:38;;;;;;;;;3.00;3.00;;;;;13.30;50.83;97821.09;6210697;28;96556;-66
2022/01/04 02:34:42;;;;;;;;;3.00;2.00;;;;;13.28;50.82;97811.63;6212773;28;98455;-67
2022/01/04 02:37:46;;;;;;;;;3.00;3.00;;;;;13.28;50.97;97808.94;6212685;28;96489;-68
2022/01/04 02:40:50;;;;;;;;;2.00;2.00;;;;;13.25;51.00;97798.63;6211023;28;97680;-68
2022/01/04 02:43:53;;;;;;;;;3.00;2.00;;;;;13.23;51.51;97801.59;6212613;28;96980;-68
2022/01/04 02:46:56;;;;;;;;;2.00;2.00;;;;;13.21;51.68;97802.94;6212309;28;96595;-65
2022/01/04 02:50:00;;;;;;;;;3.00;2.00;;;;;13.19;51.68;97805.13;6210155;28;99476;-65
2022/01/04 02:53:04;;;;;;;;;2.00;2.00;;;;;13.22;51.75;97786.44;6208447;28;98855;-65
2022/01/04 02:56:08;;;;;;;;;3.00;3.00;;;;;13.27;51.52;97782.94;6210098;28;97573;-68
2022/01/04 02:59:11;;;;;;;;;3.00;3.00;;;;;13.24;51.89;97773.44;6209395;28;97073;-66
2022/01/04 03:02:14;;;;;;;;;4.00;3.00;;;;;13.26;52.00;97767.78;6192670;28;97827;-65
2022/01/04 03:05:18;;;;;;;;;3.00;2.00;;;;;13.24;52.17;97765.31;6211531;28;96414;-67
2022/01/04 03:08:23;;;;;;;;;3.40;3.40;;;;;13.29;51.93;97762.63;6212550;28;96476;-65
2022/01/04 03:11:26;;;;;;;;;3.00;3.00;;;;;13.12;52.20;97732.28;6212327;28;96794;-69
2022/01/04 03:14:29;;;;;;;;;2.00;1.00;;;;;13.28;52.21;97752.91;6193750;28;97168;-65
2022/01/04 03:17:33;;;;;;;;;2.40;2.00;;;;;13.28;52.13;97744.78;6210373;28;98055;-67
2022/01/04 03:20:36;;;;;;;;;3.00;3.00;;;;;13.28;52.07;97750.19;6209453;28;98357;-67
2022/01/04 03:23:41;;;;;;;;;2.00;2.00;;;;;13.28;52.52;97730.44;6211381;28;96372;-65
2022/01/04 03:26:44;;;;;;;;;2.00;2.00;;;;;13.23;52.45;97720.41;6212152;28;96582;-65
2022/01/04 03:29:49;;;;;;;;;2.60;2.00;;;;;13.23;52.57;97723.13;6214803;28;97307;-68
2022/01/04 03:32:54;;;;;;;;;3.00;3.00;;;;;13.18;52.58;97712.28;6216194;28;96412;-68
2022/01/04 03:35:57;;;;;;;;;3.00;2.00;;;;;13.15;52.62;97709.28;6198370;28;97763;-65
2022/01/04 03:39:04;;;;;;;;;2.25;2.00;;;;;13.14;52.77;97704.97;6215560;28;96946;-68
2022/01/04 03:42:08;;;;;;;;;3.00;3.00;;;;;13.11;53.25;97705.44;6215310;28;96612;-65
2022/01/04 03:45:12;;;;;;;;;3.00;3.00;;;;;13.00;52.58;97678.38;6214662;28;97995;-65
2022/01/04 03:48:15;;;;;;;;;3.00;3.00;;;;;13.03;52.58;97687.84;6214285;28;97821;-65
2022/01/04 03:51:20;;;;;;;;;2.00;2.00;;;;;12.99;52.68;97682.19;6215853;28;96405;-67
2022/01/04 03:54:25;;;;;;;;;2.00;2.00;;;;;13.02;52.64;97687.03;6213522;28;99569;-66
2022/01/04 03:57:28;;;;;;;;;2.00;2.00;;;;;12.97;52.79;97681.63;6215354;28;96473;-65
2022/01/04 04:00:32;;;;;;;;;1.00;1.00;;;;;12.94;52.74;97675.94;6215355;28;97631;-66
2022/01/04 04:03:36;;;;;;;;;3.00;3.00;;;;;12.92;52.81;97673.47;6215427;28;97011;-65
2022/01/04 04:06:39;;;;;;;;;1.00;1.00;;;;;12.90;52.96;97670.22;6214965;28;97815;-65
2022/01/04 04:09:44;;;;;;;;;2.00;1.00;;;;;12.92;52.95;97649.13;6214511;28;96471;-68
2022/01/04 04:12:47;;;;;;;;;2.00;2.00;;;;;12.90;52.87;97648.56;6211488;28;99478;-69
2022/01/04 04:15:53;;;;;;;;;2.00;1.75;;;;;12.84;53.03;97651.56;6214178;28;96580;-68
2022/01/04 04:18:56;;;;;;;;;2.00;1.00;;;;;12.89;52.97;97649.69;6214962;28;97067;-68
2022/01/04 04:21:59;;;;;;;;;1.00;1.00;;;;;12.92;52.87;97643.72;6239324;27;97452;-66
2022/01/04 04:25:05;;;;;;;;;2.00;2.00;;;;;12.86;52.86;97630.44;6204467;28;97903;-66
2022/01/04 04:28:09;;;;;;;;;2.00;1.40;;;;;12.87;52.98;97635.59;6206793;28;96540;-66
2022/01/04 04:31:12;;;;;;;;;1.00;1.00;;;;;12.82;53.26;97632.06;6212803;28;97906;-66
2022/01/04 04:34:16;;;;;;;;;2.00;2.00;;;;;12.85;52.94;97631.56;6214792;28;96587;-66
2022/01/04 04:37:19;;;;;;;;;2.00;2.00;;;;;12.89;53.01;97638.06;6213865;28;97408;-68
2022/01/04 04:40:24;;;;;;;;;2.00;2.00;;;;;12.93;52.95;97636.44;6214067;28;96465;-65
2022/01/04 04:43:27;;;;;;;;;2.00;2.00;;;;;12.87;52.94;97616.66;6212607;28;97157;-68
2022/01/04 04:46:31;;;;;;;;;2.00;2.00;;;;;12.94;53.14;97624.53;6212788;28;97961;-65
2022/01/04 04:49:34;;;;;;;;;3.00;3.00;;;;;13.00;52.60;97629.66;6212425;28;97475;-68
2022/01/04 04:52:38;;;;;;;;;1.80;1.20;;;;;13.07;52.43;97624.00;6211361;28;97283;-68
2022/01/04 04:55:43;;;;;;;;;2.50;2.00;;;;;13.12;52.54;97615.13;6213389;28;96896;-66
2022/01/04 04:58:46;;;;;;;;;2.75;2.00;;;;;13.15;52.22;97603.75;6194974;28;98052;-68
2022/01/04 05:01:50;;;;;;;;;1.50;1.00;;;;;13.02;52.18;97597.75;6214638;28;96444;-65
2022/01/04 05:04:54;;;;;;;;;1.00;1.00;;;;;13.15;52.16;97599.16;6212228;28;99433;-68
2022/01/04 05:07:57;;;;;;;;;3.00;2.00;;;;;13.20;52.11;97595.63;6212845;28;96755;-66
2022/01/04 05:11:02;;;;;;;;;3.00;2.50;;;;;13.22;52.04;97604.31;6220157;28;97407;-68
2022/01/04 05:14:05;;;;;;;;;3.00;3.00;;;;;13.23;52.25;97592.41;6213407;28;96548;-67
2022/01/04 05:17:08;;;;;;;;;3.00;3.00;;;;;13.18;52.11;97598.63;6211316;28;96608;-66
2022/01/04 05:20:12;;;;;;;;;3.00;3.00;;;;;13.20;52.40;97598.34;6212361;28;96804;-68
2022/01/04 05:23:15;;;;;;;;;3.00;3.00;;;;;13.21;52.40;97597.25;6212922;28;96723;-68
2022/01/04 05:26:20;;;;;;;;;3.00;2.00;;;;;13.19;52.35;97580.50;6234413;28;97628;-68
2022/01/04 05:29:24;;;;;;;;;3.50;3.00;;;;;13.28;52.34;97592.41;6201402;28;98021;-68
2022/01/04 05:32:27;;;;;;;;;3.50;3.00;;;;;13.30;52.15;97582.09;6185196;28;99481;-68
2022/01/04 05:35:30;;;;;;;;;3.00;3.00;;;;;13.28;52.11;97576.16;6212852;28;97329;-68
2022/01/04 05:38:34;;;;;;;;;3.00;3.00;;;;;13.27;52.21;97572.66;6210993;28;97406;-66
2022/01/04 05:41:38;;;;;;;;;4.00;3.40;;;;;13.21;52.24;97568.31;6212823;28;97163;-68
2022/01/04 05:44:41;;;;;;;;;3.00;3.00;;;;;13.12;52.40;97561.00;6211350;28;98466;-68
2022/01/04 05:47:45;;;;;;;;;3.00;3.00;;;;;13.10;52.62;97558.53;6208651;28;96802;-66
2022/01/04 05:50:49;;;;;;;;;2.00;2.00;;;;;13.12;52.32;97566.41;6241450;27;96724;-66
2022/01/04 05:53:53;;;;;;;;;3.00;3.00;;;;;13.08;52.32;97557.19;6244771;27;97003;-66
2022/01/04 05:56:57;;;;;;;;;3.00;2.00;;;;;13.01;52.75;97542.03;6211666;28;96832;-68
2022/01/04 06:00:01;;;;;;;;;2.00;2.00;;;;;12.99;52.64;97543.38;6212146;28;96938;-67
2022/01/04 06:03:10;;;;;;;;;3.00;3.00;;;;;12.92;52.86;97540.13;6210532;28;97597;-66
2022/01/04 06:06:14;;;;;;;;;3.00;2.00;;;;;12.91;52.70;97536.59;6212804;28;97462;-65
2022/01/04 06:09:22;;;;;;;;;2.00;2.00;;;;;12.95;52.65;97539.59;6212293;28;97105;-66
2022/01/04 06:15:48;;;;;;;;;1.00;1.00;;;;;12.82;53.02;97543.63;6211374;28;97365;-66
2022/01/04 06:18:51;;;;;;;;;1.00;0.00;;;;;12.90;53.16;97542.31;6210833;28;97640;-68
2022/01/04 06:21:54;;;;;;;;;1.00;1.00;;;;;12.92;52.87;97540.13;6208323;28;98437;-68
2022/01/04 06:24:58;;;;;;;;;1.00;1.00;;;;;12.96;53.07;97528.50;6210415;28;97400;-67
2022/01/04 06:28:03;;;;;;;;;0.00;0.00;;;;;12.89;52.89;97529.84;6210309;28;96696;-67
2022/01/04 06:31:06;;;;;;;;;1.00;0.00;;;;;13.01;52.95;97536.63;6192456;28;97513;-66
2022/01/04 06:34:10;;;;;;;;;2.00;1.00;;;;;13.08;52.68;97525.53;6178247;28;97078;-64
2022/01/04 06:37:14;;;;;;;;;2.00;2.00;;;;;13.11;52.63;97529.59;6207630;28;97530;-65
2022/01/04 06:40:17;;;;;;;;;1.00;1.00;;;;;13.16;52.52;97526.91;6160810;28;98154;-65
2022/01/04 06:43:22;;;;;;;;;2.50;2.00;;;;;13.19;52.36;97520.97;6190946;28;96866;-65
2022/01/04 06:46:25;;;;;;;;;3.80;3.00;;;;;13.15;52.18;97520.69;6187323;28;97268;-67
2022/01/04 06:49:29;;;;;;;;;2.00;2.00;;;;;13.20;51.93;97523.38;6188883;28;99656;-63
2022/01/04 06:52:33;;;;;;;;;1.25;1.25;;;;;13.29;51.84;97515.56;6217100;27;97549;-63
2022/01/04 06:55:36;;;;;;;;;8.00;6.50;;;;;13.36;51.49;97514.19;6199562;28;97546;-64
2022/01/04 06:58:41;;;;;;;;;2.00;2.00;;;;;13.43;51.55;97505.78;6205302;28;96855;-64
2022/01/04 07:01:45;;;;;;;;;1.33;1.00;;;;;13.55;51.26;97505.47;6209784;28;98058;-65
2022/01/04 07:04:49;;;;;;;;;2.00;1.00;;;;;13.61;51.02;97490.84;6209744;28;97058;-65
2022/01/04 07:07:52;;;;;;;;;1.00;1.00;;;;;13.63;50.66;97502.22;6215096;28;96994;-67
2022/01/04 07:10:55;;;;;;;;;2.00;2.00;;;;;13.67;50.67;97497.88;6212829;28;96979;-66
2022/01/04 07:14:00;;;;;;;;;1.00;1.00;;;;;13.58;50.48;97491.41;6214894;28;97234;-67
2022/01/04 07:17:04;;;;;;;;;1.00;0.60;;;;;13.71;49.89;97498.94;6213526;28;96480;-67
2022/01/04 07:20:08;;;;;;;;;1.00;1.00;;;;;13.78;49.82;97488.66;6213672;28;97406;-68
2022/01/04 07:23:11;;;;;;;;;2.00;1.00;;;;;13.86;49.52;97496.19;6209981;28;98770;-67
2022/01/04 07:26:15;;;;;;;;;1.00;1.00;;;;;13.94;49.43;97497.50;6215748;28;96389;-65
2022/01/04 07:29:20;;;;;;;;;1.50;1.50;;;;;14.04;49.19;97487.44;6213141;28;96696;-63
2022/01/04 07:32:26;;;;;;;;;1.00;1.00;;;;;13.92;49.35;97480.72;6213273;28;96717;-66
2022/01/04 07:35:29;;;;;;;;;2.00;2.00;;;;;13.92;49.51;97469.91;6207738;28;96642;-66
2022/01/04 07:38:33;;;;;;;;;2.00;1.50;;;;;13.83;49.87;97458.81;6219660;28;96742;-66
2022/01/04 07:41:36;;;;;;;;;2.00;2.00;;;;;13.84;49.67;97465.84;6214143;28;97941;-64
2022/01/04 07:44:40;;;;;;;;;1.00;1.00;;;;;13.86;49.75;97450.94;6203456;28;96733;-64
2022/01/04 07:47:44;;;;;;;;;2.00;2.00;;;;;13.99;49.25;97441.41;6201332;28;97388;-65
2022/01/04 07:50:47;;;;;;;;;1.00;1.00;;;;;13.93;49.25;97425.47;6204207;28;99445;-68
2022/01/04 07:53:54;;;;;;;;;2.00;2.00;;;;;14.00;49.71;97445.72;6210226;28;97246;-66
2022/01/04 07:56:58;;;;;;;;;1.00;1.00;;;;;14.13;48.97;97438.88;6224600;27;97239;-64
2022/01/04 08:00:03;;;;;;;;;3.00;3.00;;;;;14.25;49.35;97439.38;6214169;28;97462;-66
2022/01/04 08:03:16;;;;;;;;;2.00;2.00;;;;;14.43;48.92;97425.19;6213275;28;97019;-67
2022/01/04 08:06:19;;;;;;;;;3.00;3.00;;;;;14.49;48.84;97418.63;6212596;28;96688;-68
2022/01/04 08:09:22;;;;;;;;;4.00;3.60;;;;;14.58;48.60;97418.84;6212032;28;96663;-68
2022/01/04 08:12:27;;;;;;;;;3.80;3.00;;;;;14.64;48.28;97423.94;6211066;28;97752;-67
2022/01/04 08:15:32;;;;;;;;;3.00;3.00;;;;;14.73;48.02;97427.66;6213083;28;97537;-67
2022/01/04 08:18:35;;;;;;;;;2.60;2.00;;;;;14.76;47.99;97409.22;6212802;28;97284;-65
2022/01/04 08:21:58;;;;;;;;;3.00;2.60;;;;;14.70;47.86;97406.56;6244948;27;96874;-64
2022/01/04 08:25:03;;;;;;;;;2.60;2.60;;;;;14.71;47.59;97401.91;6213589;28;97558;-68
2022/01/04 08:28:06;;;;;;;;;4.00;3.60;;;;;14.62;47.70;97373.78;6210886;28;96860;-66
2022/01/04 08:31:11;;;;;;;;;3.00;3.00;;;;;14.74;47.47;97391.31;6212965;28;97122;-66
2022/01/04 08:34:29;;;;;;;;;2.00;2.00;;;;;14.71;47.64;97378.31;6212972;28;97315;-67
2022/01/04 08:37:33;;;;;;;;;3.00;2.00;;;;;14.72;47.67;97379.13;6211525;28;96656;-64
2022/01/04 08:40:36;;;;;;;;;2.00;2.00;;;;;14.75;47.48;97384.00;6211086;28;96675;-64
2022/01/04 08:43:40;;;;;;;;;3.00;3.00;;;;;14.70;47.16;97360.44;6209720;28;97074;-67
2022/01/04 08:46:44;;;;;;;;;4.00;3.00;;;;;14.63;47.09;97373.50;6210161;28;96739;-63
2022/01/04 08:49:48;;;;;;;;;2.00;1.60;;;;;14.69;47.45;97345.25;6208331;28;97736;-63
2022/01/04 08:52:52;;;;;;;;;4.00;3.00;;;;;14.72;46.92;97352.81;6204894;28;97137;-65
2022/01/04 08:56:00;;;;;;;;;3.40;3.00;;;;;14.69;46.88;97336.31;6190927;28;96805;-68
2022/01/04 08:59:05;;;;;;;;;3.40;3.00;;;;;14.70;46.87;97335.22;6196970;28;96813;-66
2022/01/04 09:02:10;;;;;;;;;3.50;3.50;;;;;14.67;46.85;97328.44;6196759;28;98027;-67
2022/01/04 09:05:13;;;;;;;;;5.00;4.00;;;;;14.68;46.94;97327.34;6201803;28;97402;-68
2022/01/04 09:08:17;;;;;;;;;3.00;3.00;;;;;14.63;47.07;97319.25;6196079;28;97295;-66
2022/01/04 09:11:21;;;;;;;;;4.00;4.00;;;;;14.63;46.85;97313.03;6192105;28;97430;-68
2022/01/04 09:14:29;;;;;;;;;4.50;4.00;;;;;14.66;46.75;97309.75;6206522;28;97250;-64
2022/01/04 09:20:55;;;;;;;;;5.00;4.00;;;;;14.65;46.51;97292.69;6189703;28;96659;-66
2022/01/04 09:24:00;;;;;;;;;5.00;4.00;;;;;14.64;46.53;97282.91;6189303;28;97071;-65
2022/01/04 09:27:06;;;;;;;;;3.50;3.50;;;;;14.76;46.54;97279.78;6202431;28;98507;-67
2022/01/04 09:30:10;;;;;;;;;3.00;3.00;;;;;14.70;46.15;97264.69;6194336;28;96904;-68
2022/01/04 09:33:15;;;;;;;;;3.00;2.00;;;;;14.66;46.00;97256.28;6213578;28;97502;-65
2022/01/04 09:36:19;;;;;;;;;4.00;3.40;;;;;14.60;46.22;97243.91;6206856;28;96879;-64
2022/01/04 09:39:25;;;;;;;;;4.00;2.00;;;;;14.68;46.23;97231.63;6211115;28;97046;-67
2022/01/04 09:42:28;;;;;;;;;3.20;3.00;;;;;14.67;46.14;97225.38;6213259;28;97460;-64
2022/01/04 09:45:32;;;;;;;;;3.00;3.00;;;;;14.67;46.46;97213.72;6214169;28;97516;-63
2022/01/04 09:48:36;;;;;;;;;3.00;3.00;;;;;14.61;46.22;97214.88;6211910;28;97158;-65
2022/01/04 09:51:41;;;;;;;;;3.00;3.00;;;;;14.75;45.97;97213.09;6227831;28;97396;-65
2022/01/04 09:54:45;;;;;;;;;4.00;4.00;;;;;14.71;45.94;97203.91;6194733;28;97699;-68
2022/01/04 09:57:49;;;;;;;;;4.40;3.60;;;;;14.77;45.89;97201.94;6203512;28;96613;-65
2022/01/04 10:00:52;;;;;;;;;3.00;3.00;;;;;14.87;45.93;97199.09;6210634;28;96689;-65
2022/01/04 10:03:57;;;;;;;;;4.00;4.00;;;;;14.87;45.66;97182.84;6213003;28;96870;-67
2022/01/04 10:07:03;;;;;;;;;4.00;3.00;;;;;14.91;45.76;97165.69;6210599;28;98056;-67
2022/01/04 10:10:10;;;;;;;;;3.50;3.00;;;;;14.92;45.99;97164.59;6211155;28;96693;-67
2022/01/04 10:13:16;;;;;;;;;3.00;3.00;;;;;14.89;46.13;97157.03;6211319;28;96476;-67
2022/01/04 10:16:20;;;;;;;;;4.60;4.00;;;;;14.97;45.99;97153.66;6210492;28;96598;-69
2022/01/04 10:19:33;;;;;;;;;4.50;4.00;;;;;15.00;45.93;97163.16;6212206;28;96419;-67
2022/01/04 10:22:36;;;;;;;;;4.20;3.20;;;;;15.10;45.81;97155.66;6206195;28;98698;-66
2022/01/04 10:25:40;;;;;;;;;5.00;5.00;;;;;15.22;45.71;97162.56;6212270;28;97406;-67
2022/01/04 10:28:47;;;;;;;;;4.00;4.00;;;;;15.18;45.74;97157.72;6212176;28;97073;-67
2022/01/04 10:31:51;;;;;;;;;4.00;4.00;;;;;15.26;45.32;97150.00;6212350;28;96813;-69
2022/01/04 10:34:56;;;;;;;;;4.00;3.00;;;;;15.24;45.06;97146.78;6212275;28;97022;-66
2022/01/04 10:38:01;;;;;;;;;3.80;3.00;;;;;15.33;45.03;97140.41;6212572;28;97448;-64
2022/01/04 10:41:06;;;;;;;;;3.60;3.00;;;;;15.48;45.32;97131.22;6212024;28;96420;-64
2022/01/04 10:44:11;;;;;;;;;3.00;3.00;;;;;15.44;45.29;97124.78;6193975;28;97863;-67
2022/01/04 10:47:14;;;;;;;;;4.00;3.00;;;;;15.44;45.69;97122.06;6211811;28;96412;-66
2022/01/04 10:50:31;;;;;;;;;4.00;4.00;;;;;15.38;46.05;97120.53;6207734;28;97494;-67
2022/01/04 10:53:38;;;;;;;;;4.40;4.40;;;;;15.51;46.24;97126.03;6211351;28;96425;-67
2022/01/04 10:56:41;;;;;;;;;4.00;4.00;;;;;15.54;46.32;97109.13;6212235;28;96787;-67
2022/01/04 10:59:45;;;;;;;;;4.00;3.00;;;;;15.54;46.54;97106.41;6211708;28;96383;-69
2022/01/04 11:02:48;;;;;;;;;4.00;4.00;;;;;15.55;46.80;97104.50;6210241;28;97793;-69
2022/01/04 11:05:58;;;;;;;;;4.00;4.00;;;;;15.52;47.16;97096.97;6210351;28;96838;-66
2022/01/04 11:09:02;;;;;;;;;5.00;5.00;;;;;15.44;47.36;97097.63;6185036;28;98417;-66
2022/01/04 11:12:06;;;;;;;;;4.00;4.00;;;;;15.41;47.61;97088.13;6186961;28;96378;-66
2022/01/04 11:15:10;;;;;;;;;5.00;4.00;;;;;15.37;48.31;97095.28;6186935;28;97503;-67
2022/01/04 11:18:13;;;;;;;;;5.00;4.00;;;;;15.37;48.59;97086.31;6187116;28;96380;-69
2022/01/04 11:21:21;;;;;;;;;6.00;5.00;;;;;15.43;48.67;97079.72;6186167;28;96764;-65
2022/01/04 11:24:25;;;;;;;;;5.60;5.60;;;;;15.42;48.92;97078.09;6183463;28;100192;-68
2022/01/04 11:27:30;;;;;;;;;7.80;7.00;;;;;15.42;49.10;97069.94;6186586;28;96551;-65
2022/01/04 11:30:48;;;;;;;;;8.80;7.00;;;;;15.41;49.38;97069.13;6186754;28;96470;-66
2022/01/04 11:33:59;;;;;;;;;6.20;6.00;;;;;15.38;49.29;97061.59;6216564;28;97523;-67
2022/01/04 11:37:04;;;;;;;;;6.00;6.00;;;;;15.46;49.47;97063.63;6207752;28;98016;-65
2022/01/04 11:40:26;;;;;;;;;7.00;6.00;;;;;15.49;49.13;97046.72;6198076;28;96971;-68
2022/01/04 11:43:33;;;;;;;;;6.75;5.00;;;;;15.53;49.04;97039.66;6189980;28;97475;-66
2022/01/04 11:46:37;;;;;;;;;5.00;4.00;;;;;15.56;49.20;97032.81;6183883;28;96859;-65
2022/01/04 11:50:05;;;;;;;;;5.20;4.80;;;;;15.52;49.07;97024.44;6187231;28;96693;-68
2022/01/04 11:53:10;;;;;;;;;6.00;5.80;;;;;15.55;49.20;97007.53;6221952;27;96830;-69
2022/01/04 11:56:13;;;;;;;;;4.00;3.67;;;;;15.47;49.58;97010.13;6192702;28;97178;-67
2022/01/04 11:59:22;;;;;;;;;3.00;3.00;;;;;15.45;49.67;97001.44;6194033;28;98479;-65
2022/01/04 12:02:30;;;;;;;;;4.00;4.00;;;;;15.44;50.12;97006.06;6192456;28;97138;-65
2022/01/04 12:05:36;;;;;;;;;3.00;3.00;;;;;15.46;49.93;96997.63;6194598;28;97080;-69
2022/01/04 12:08:42;;;;;;;;;3.80;3.00;;;;;15.44;50.22;96997.94;6195805;28;96768;-66
2022/01/04 12:11:46;;;;;;;;;4.00;3.40;;;;;15.45;50.23;96990.59;6197232;28;97495;-65
2022/01/04 12:14:50;;;;;;;;;3.00;3.00;;;;;15.49;50.33;96984.25;6191126;28;96697;-67
2022/01/04 12:17:53;;;;;;;;;4.00;4.00;;;;;15.42;50.33;96973.00;6193102;28;96680;-63
2022/01/04 12:20:58;;;;;;;;;3.60;3.00;;;;;15.45;50.35;96977.00;6186624;28;97263;-64
2022/01/04 12:24:04;;;;;;;;;3.00;3.00;;;;;15.42;50.51;96975.72;6190953;28;97543;-69
2022/01/04 12:27:09;;;;;;;;;2.60;2.00;;;;;15.48;50.48;96974.53;6191083;28;97600;-66
2022/01/04 12:30:29;;;;;;;;;3.40;3.00;;;;;15.54;49.77;96959.75;6205645;28;96845;-66
2022/01/04 12:33:37;;;;;;;;;3.00;2.00;;;;;15.56;49.71;96956.75;6202479;28;96750;-68
2022/01/04 12:36:43;;;;;;;;;1.40;1.40;;;;;15.58;49.45;96941.78;6191668;28;96808;-67
2022/01/04 12:39:51;;;;;;;;;1.00;1.00;;;;;15.57;49.22;96934.75;6172283;28;96721;-68
2022/01/04 12:42:55;;;;;;;;;3.00;2.67;;;;;15.66;49.04;96928.59;6195683;28;97248;-70
2022/01/04 12:46:00;;;;;;;;;2.00;2.00;;;;;15.59;49.14;96929.78;6215272;28;96914;-67
2022/01/04 12:49:06;;;;;;;;;4.00;4.00;;;;;15.71;48.95;96926.59;6187203;28;96686;-69
2022/01/04 12:52:10;;;;;;;;;2.00;2.00;;;;;15.66;48.65;96915.00;6190733;28;96954;-65
2022/01/04 12:55:15;;;;;;;;;2.00;2.00;;;;;15.74;48.36;96912.38;6208458;28;96668;-68
2022/01/04 12:58:18;;;;;;;;;1.20;1.00;;;;;15.87;48.27;96897.19;6208782;28;97499;-64
2022/01/04 13:01:23;;;;;;;;;3.00;3.00;;;;;15.82;47.49;96898.13;6190315;28;97111;-64
2022/01/04 13:04:29;;;;;;;;;2.00;2.00;;;;;15.96;47.21;96884.50;6189431;28;97428;-65
2022/01/04 13:07:35;;;;;;;;;2.00;2.00;;;;;15.94;46.73;96881.28;6197454;28;97863;-64
2022/01/04 13:10:40;;;;;;;;;3.00;2.00;;;;;15.84;47.20;96870.63;6192812;28;97470;-68
2022/01/04 13:13:43;;;;;;;;;3.00;3.00;;;;;15.91;46.78;96868.31;6196101;28;97104;-65
2022/01/04 13:16:47;;;;;;;;;1.40;1.40;;;;;15.93;46.68;96871.53;6188269;28;98387;-65
2022/01/04 13:19:51;;;;;;;;;3.00;3.00;;;;;15.93;46.13;96856.00;6187679;28;97100;-68
2022/01/04 13:22:56;;;;;;;;;2.00;2.00;;;;;16.01;45.60;96860.75;6212749;28;96632;-69
2022/01/04 13:26:00;;;;;;;;;3.00;3.00;;;;;16.08;45.62;96854.09;6197416;28;97029;-69
2022/01/04 13:29:04;;;;;;;;;3.00;2.00;;;;;16.10;45.59;96844.50;6192657;28;97623;-65
2022/01/04 13:32:08;;;;;;;;;2.00;2.00;;;;;16.17;45.05;96838.66;6197955;28;97494;-68
2022/01/04 13:35:16;;;;;;;;;3.00;3.00;;;;;16.10;45.02;96840.97;6188456;28;96887;-68
2022/01/04 13:38:23;;;;;;;;;3.00;3.00;;;;;16.19;44.94;96830.97;6218345;28;97028;-68
2022/01/04 13:41:35;;;;;;;;;2.00;2.00;;;;;16.22;44.68;96824.94;6194753;28;98621;-68
2022/01/04 13:44:53;;;;;;;;;1.00;1.00;;;;;16.17;44.36;96814.19;6213147;28;97382;-67
2022/01/04 13:48:00;;;;;;;;;2.20;2.20;;;;;16.27;44.44;96795.69;6210845;28;96510;-66
2022/01/04 13:51:05;;;;;;;;;3.00;2.00;;;;;16.36;44.38;96793.06;6222394;27;97840;-67
2022/01/04 13:54:11;;;;;;;;;3.00;3.00;;;;;16.40;44.09;96786.69;6191215;28;97501;-65
2022/01/04 13:57:16;;;;;;;;;1.00;1.00;;;;;16.39;44.29;96793.25;6195538;28;97672;-67
2022/01/04 14:00:34;;;;;;;;;3.00;3.00;;;;;16.39;44.40;96790.53;6201975;28;97577;-67
2022/01/04 14:03:37;;;;;;;;;3.00;3.00;;;;;16.33;44.52;96783.59;6201535;28;97539;-68
2022/01/04 14:06:44;;;;;;;;;3.00;2.60;;;;;16.44;44.33;96787.69;6203565;28;97275;-68
2022/01/04 14:09:52;;;;;;;;;3.00;3.00;;;;;16.49;44.52;96775.88;6202611;28;98880;-67
2022/01/04 14:12:56;;;;;;;;;3.00;3.00;;;;;16.32;44.63;96768.38;6203594;28;97506;-67
2022/01/04 14:16:11;;;;;;;;;2.00;2.00;;;;;16.40;44.85;96758.69;6207933;27;98082;-65
2022/01/04 14:19:16;;;;;;;;;3.20;2.80;;;;;16.40;45.27;96751.34;6213600;28;96858;-67
2022/01/04 14:22:22;;;;;;;;;4.00;4.00;;;;;16.36;45.37;96741.41;6206740;28;97428;-65
2022/01/04 14:25:25;;;;;;;;;4.00;3.80;;;;;16.38;45.43;96741.88;6197417;28;97501;-66
2022/01/04 14:28:30;;;;;;;;;4.00;4.00;;;;;16.40;45.58;96739.66;6201906;28;99052;-67
2022/01/04 14:31:33;;;;;;;;;3.80;3.80;;;;;16.38;45.59;96734.53;6204463;28;96730;-66
2022/01/04 14:34:37;;;;;;;;;3.40;3.40;;;;;16.26;45.71;96711.75;6211927;28;96539;-66
2022/01/04 14:37:43;;;;;;;;;4.00;4.00;;;;;16.31;45.87;96717.88;6211044;28;98413;-66